Aviation Digital Data Service (ADDS)

Output produced by METARs form (0818 UTC 25 April 2014)
found at http://www.aviationweather.gov/adds/metars/
 
KWWD 250815Z AUTO 00000KT 10SM CLR 04/M04 A3004 RMK AO1